createdAt,value
2022-12-18T00:02:03.735Z,101947.81
2022-12-18T00:04:30.609Z,101937.06
2022-12-18T00:06:57.339Z,101952.31
2022-12-18T00:09:25.263Z,101951.38
2022-12-18T00:12:23.395Z,101943.25
2022-12-18T00:14:53.584Z,101932.63
2022-12-18T00:20:13.146Z,101939.72
2022-12-18T00:22:44.833Z,101978.06
2022-12-18T00:25:22.089Z,101969.16
2022-12-18T00:27:52.110Z,101966.41
2022-12-18T00:30:26.259Z,101965.53
2022-12-18T00:32:59.533Z,101970.03
2022-12-18T00:35:43.662Z,101989.78
2022-12-18T00:38:29.296Z,101980.75
2022-12-18T00:41:19.993Z,101987.06
2022-12-18T00:44:03.325Z,101985.19
2022-12-18T00:46:45.200Z,101981.69
2022-12-18T00:49:19.738Z,101979.94
2022-12-18T00:52:09.577Z,102001.34
2022-12-18T00:54:59.666Z,101968.50
2022-12-18T00:57:44.474Z,101967.63
2022-12-18T01:00:28.840Z,102004.09
2022-12-18T01:03:03.016Z,101978.41
2022-12-18T01:05:52.174Z,102010.59
2022-12-18T01:08:41.284Z,102007.97
2022-12-18T01:11:29.439Z,102006.16
2022-12-18T01:14:25.421Z,102013.34
2022-12-18T01:17:16.048Z,102016.91
2022-12-18T01:19:58.468Z,102005.41
2022-12-18T01:25:37.686Z,102001.81
2022-12-18T01:28:05.719Z,102000.03
2022-12-18T01:31:11.328Z,102001.81
2022-12-18T01:34:11.341Z,102019.59
2022-12-18T01:37:13.141Z,102000.00
2022-12-18T01:39:56.401Z,102032.97
2022-12-18T01:42:40.840Z,101996.47
2022-12-18T01:45:36.344Z,102041.03
2022-12-18T01:48:22.153Z,102031.22
2022-12-18T01:51:10.069Z,102023.19
2022-12-18T01:53:55.631Z,102028.59
2022-12-18T01:56:40.878Z,102009.00
2022-12-18T01:59:17.467Z,102027.66
2022-12-18T02:01:49.786Z,102050.78
2022-12-18T02:04:34.519Z,102024.13
2022-12-18T02:07:20.819Z,102018.75
2022-12-18T02:10:03.209Z,102039.31
2022-12-18T02:12:46.783Z,102041.97
2022-12-18T02:15:40.490Z,102068.69
2022-12-18T02:18:29.832Z,102067.84
2022-12-18T02:21:20.524Z,102055.38
2022-12-18T02:24:18.486Z,102064.31
2022-12-18T02:27:08.633Z,102073.22
2022-12-18T02:30:14.539Z,102072.34
2022-12-18T02:32:59.033Z,102051.84
2022-12-18T02:35:41.169Z,102050.06
2022-12-18T02:38:25.854Z,102048.31
2022-12-18T02:47:00.753Z,102060.81
2022-12-18T02:49:38.288Z,102075.09
2022-12-18T02:52:28.625Z,102073.31
2022-12-18T02:55:31.672Z,102062.63
2022-12-18T02:58:24.776Z,102076.91
2022-12-18T03:01:14.205Z,102073.34
2022-12-18T03:04:16.757Z,102075.09
2022-12-18T03:07:03.679Z,102084.91
2022-12-18T03:09:39.280Z,102084.91
2022-12-18T03:12:17.804Z,102073.28
2022-12-18T03:14:59.347Z,102085.72
2022-12-18T03:17:56.449Z,102077.81
2022-12-18T03:20:37.551Z,102099.19
2022-12-18T03:23:18.407Z,102093.84
2022-12-18T03:25:56.277Z,102067.09
2022-12-18T03:29:04.959Z,102069.78
2022-12-18T03:31:54.659Z,102087.63
2022-12-18T03:37:16.903Z,102104.53
2022-12-18T03:40:14.404Z,102102.78
2022-12-18T03:43:04.064Z,102099.19
2022-12-18T03:45:57.768Z,102108.13
2022-12-18T03:48:45.437Z,102106.34
2022-12-18T03:51:26.494Z,102119.75
2022-12-18T03:57:03.341Z,102109.03
2022-12-18T03:59:40.772Z,102128.63
2022-12-18T04:02:36.319Z,102118.78
2022-12-18T04:05:12.081Z,102131.28
2022-12-18T04:10:53.545Z,102117.97
2022-12-18T04:13:32.622Z,102156.28
2022-12-18T04:16:24.160Z,102132.19
2022-12-18T04:19:08.558Z,102133.13
2022-12-18T04:22:10.341Z,102156.28
2022-12-18T04:24:50.380Z,102145.59
2022-12-18T04:27:26.800Z,102130.44
2022-12-18T04:30:04.479Z,102158.09
2022-12-18T04:32:57.680Z,102135.75
2022-12-18T04:35:38.873Z,102137.53
2022-12-18T04:38:21.571Z,102140.22
2022-12-18T04:41:10.772Z,102147.31
2022-12-18T04:44:03.151Z,102166.03
2022-12-18T04:46:44.308Z,102185.63
2022-12-18T04:49:33.467Z,102178.41
2022-12-18T04:55:27.241Z,102191.78
2022-12-18T04:58:10.227Z,102188.25
2022-12-18T05:00:48.408Z,102195.38
2022-12-18T05:03:24.199Z,102189.13
2022-12-18T05:09:17.075Z,102185.56
2022-12-18T05:12:24.854Z,102180.09
2022-12-18T05:15:15.364Z,102208.72
2022-12-18T05:21:05.811Z,102210.50
2022-12-18T05:23:51.566Z,102221.22
2022-12-18T05:29:14.078Z,102210.41
2022-12-18T05:32:09.175Z,102199.69
2022-12-18T05:34:50.552Z,102228.22
2022-12-18T05:37:27.634Z,102238.91
2022-12-18T05:40:32.359Z,102247.72
2022-12-18T05:43:21.628Z,102258.47
2022-12-18T05:45:54.350Z,102278.97
2022-12-18T05:48:33.574Z,102277.13
2022-12-18T05:51:16.430Z,102270.78
2022-12-18T05:56:35.346Z,102293.03
2022-12-18T05:59:22.044Z,102302.88
2022-12-18T06:02:00.756Z,102294.84
2022-12-18T06:04:46.822Z,102320.75
2022-12-18T06:07:26.450Z,102315.53
2022-12-18T06:12:54.936Z,102302.22
2022-12-18T06:15:35.476Z,102319.06
2022-12-18T06:18:12.801Z,102308.41
2022-12-18T06:21:04.310Z,102324.56
2022-12-18T06:23:43.208Z,102307.53
2022-12-18T06:26:17.107Z,102295.91
2022-12-18T06:34:36.755Z,102322.81
2022-12-18T06:37:30.654Z,102297.72
2022-12-18T06:40:07.095Z,102294.16
2022-12-18T06:42:45.300Z,102312.03
2022-12-18T06:45:38.617Z,102318.28
2022-12-18T06:48:33.794Z,102320.97
2022-12-18T06:51:36.045Z,102337.91
2022-12-18T06:54:29.940Z,102344.22
2022-12-18T06:56:56.545Z,102334.41
2022-12-18T06:59:23.132Z,102347.75
2022-12-18T07:01:49.814Z,102342.41
2022-12-18T07:04:16.599Z,102350.50
2022-12-18T07:06:43.149Z,102351.31
2022-12-18T07:09:09.738Z,102355.75
2022-12-18T07:11:37.705Z,102323.69
2022-12-18T07:14:04.290Z,102359.34
2022-12-18T07:16:31.003Z,102358.41
2022-12-18T07:18:57.836Z,102361.06
2022-12-18T07:21:25.852Z,102360.28
2022-12-18T07:23:55.682Z,102357.47
2022-12-18T07:26:24.202Z,102363.72
2022-12-18T07:28:58.170Z,102359.28
2022-12-18T07:31:25.895Z,102358.44
2022-12-18T07:33:53.116Z,102368.22
2022-12-18T07:36:20.135Z,102369.13
2022-12-18T07:38:47.987Z,102385.31
2022-12-18T07:41:15.058Z,102393.31
2022-12-18T07:43:42.973Z,102388.94
2022-12-18T07:46:13.364Z,102394.41
2022-12-18T07:48:40.310Z,102389.84
2022-12-18T07:51:09.145Z,102398.75
2022-12-18T07:53:37.406Z,102396.19
2022-12-18T07:56:26.432Z,102404.19
2022-12-18T07:58:53.700Z,102404.22
2022-12-18T08:01:21.808Z,102413.09
2022-12-18T08:03:50.147Z,102401.56
2022-12-18T08:06:21.834Z,102411.41
2022-12-18T08:08:52.520Z,102418.59
2022-12-18T08:11:19.154Z,102419.53
2022-12-18T08:13:46.401Z,102398.09
2022-12-18T08:16:13.069Z,102411.47
2022-12-18T08:18:41.144Z,102401.66
2022-12-18T08:21:11.238Z,102408.81
2022-12-18T08:23:42.387Z,102409.75
2022-12-18T08:26:10.572Z,102416.84
2022-12-18T08:28:37.176Z,102408.81
2022-12-18T08:31:03.887Z,102418.72
2022-12-18T08:33:30.542Z,102416.06
2022-12-18T08:35:59.359Z,102416.06
2022-12-18T08:38:42.511Z,102411.63
2022-12-18T08:44:11.627Z,102426.81
2022-12-18T08:47:04.660Z,102409.81
2022-12-18T08:49:38.432Z,102401.78
2022-12-18T08:52:35.084Z,102420.56
2022-12-18T08:55:01.684Z,102426.81
2022-12-18T08:57:28.295Z,102422.34
2022-12-18T08:59:55.035Z,102409.84
2022-12-18T09:02:28.354Z,102406.22
2022-12-18T09:04:57.597Z,102419.66
2022-12-18T09:07:35.829Z,102430.34
2022-12-18T09:10:02.452Z,102430.38
2022-12-18T09:12:38.140Z,102420.47
2022-12-18T09:15:05.932Z,102440.19
2022-12-18T09:17:41.862Z,102442.84
2022-12-18T09:20:09.906Z,102445.56
2022-12-18T09:22:38.033Z,102445.53
2022-12-18T09:25:05.700Z,102451.78
2022-12-18T09:27:45.820Z,102443.72
2022-12-18T09:30:12.906Z,102440.22
2022-12-18T09:33:04.882Z,102445.59
2022-12-18T09:39:08.070Z,102421.47
2022-12-18T09:41:59.064Z,102420.56
2022-12-18T09:44:28.927Z,102400.88
2022-12-18T09:47:10.273Z,102433.97
2022-12-18T09:49:42.824Z,102416.06
2022-12-18T09:52:13.884Z,102432.19
2022-12-18T09:54:49.613Z,102401.81
2022-12-18T09:57:19.793Z,102421.47
2022-12-18T09:59:52.575Z,102427.75
2022-12-18T10:02:20.982Z,102421.47
2022-12-18T10:04:58.122Z,102423.25
2022-12-18T10:07:34.468Z,102410.72
2022-12-18T10:10:08.128Z,102415.22
2022-12-18T10:12:45.871Z,102425.94
2022-12-18T10:15:20.976Z,102416.09
2022-12-18T10:17:56.342Z,102392.88
2022-12-18T10:20:28.682Z,102398.25
2022-12-18T10:23:04.740Z,102422.34
2022-12-18T10:25:41.453Z,102416.13
2022-12-18T10:28:13.205Z,102408.97
2022-12-18T10:30:42.445Z,102415.19
2022-12-18T10:33:12.838Z,102420.56
2022-12-18T10:35:42.450Z,102404.47
2022-12-18T10:38:22.228Z,102403.56
2022-12-18T10:40:53.065Z,102400.88
2022-12-18T10:43:25.610Z,102388.34
2022-12-18T10:46:21.263Z,102391.91
2022-12-18T10:48:55.942Z,102380.28
2022-12-18T10:51:25.458Z,102364.22
2022-12-18T10:53:56.537Z,102375.78
2022-12-18T10:56:26.139Z,102366.88
2022-12-18T10:58:56.697Z,102383.84
2022-12-18T11:01:23.366Z,102376.69
2022-12-18T11:04:02.962Z,102373.13
2022-12-18T11:06:30.119Z,102374.97
2022-12-18T11:09:02.024Z,102366.91
2022-12-18T11:11:32.273Z,102370.44
2022-12-18T11:14:03.587Z,102365.09
2022-12-18T11:16:34.217Z,102342.78
2022-12-18T11:19:33.288Z,102337.47
2022-12-18T11:22:04.385Z,102358.84
2022-12-18T11:25:02.231Z,102349.00
2022-12-18T11:27:38.091Z,102345.44
2022-12-18T11:30:15.991Z,102329.34
2022-12-18T11:33:08.675Z,102341.81
2022-12-18T11:35:45.486Z,102351.59
2022-12-18T11:38:24.867Z,102347.13
2022-12-18T11:41:01.675Z,102342.69
2022-12-18T11:43:50.507Z,102355.13
2022-12-18T11:46:25.877Z,102335.41
2022-12-18T11:49:12.837Z,102332.63
2022-12-18T11:51:50.047Z,102350.53
2022-12-18T11:54:24.485Z,102345.22
2022-12-18T11:56:56.489Z,102341.38
2022-12-18T11:59:37.642Z,102337.72
2022-12-18T12:02:24.467Z,102352.97
2022-12-18T12:05:24.549Z,102339.53
2022-12-18T12:08:10.167Z,102344.25
2022-12-18T12:10:50.376Z,102338.91
2022-12-18T12:13:33.882Z,102349.75
2022-12-18T12:16:18.767Z,102322.16
2022-12-18T12:19:15.397Z,102340.97
2022-12-18T12:21:55.898Z,102325.75
2022-12-18T12:24:47.273Z,102340.94
2022-12-18T12:27:41.516Z,102326.75
2022-12-18T12:30:16.709Z,102341.06
2022-12-18T12:33:17.541Z,102314.28
2022-12-18T12:36:01.479Z,102328.56
2022-12-18T12:38:38.861Z,102344.63
2022-12-18T12:41:16.836Z,102317.84
2022-12-18T12:43:50.857Z,102322.31
2022-12-18T12:46:30.187Z,102310.69
2022-12-18T12:49:02.458Z,102319.56
2022-12-18T12:51:33.706Z,102301.72
2022-12-18T12:54:02.583Z,102302.59
2022-12-18T12:56:40.831Z,102311.53
2022-12-18T12:59:14.870Z,102319.50
2022-12-18T13:01:56.788Z,102320.47
2022-12-18T13:04:40.275Z,102310.66
2022-12-18T13:07:13.648Z,102311.47
2022-12-18T13:10:25.702Z,102298.19
2022-12-18T13:13:24.324Z,102326.69
2022-12-18T13:18:57.604Z,102322.28
2022-12-18T13:21:29.683Z,102315.13
2022-12-18T13:24:17.354Z,102313.34
2022-12-18T13:27:08.989Z,102344.66
2022-12-18T13:29:46.917Z,102331.19
2022-12-18T13:32:28.146Z,102333.84
2022-12-18T13:35:33.608Z,102332.03
2022-12-18T13:38:25.269Z,102314.16
2022-12-18T13:41:08.261Z,102339.19
2022-12-18T13:43:47.626Z,102310.59
2022-12-18T13:46:26.999Z,102326.69
2022-12-18T13:49:11.577Z,102326.66
2022-12-18T13:51:50.385Z,102340.97
2022-12-18T13:54:35.278Z,102317.72
2022-12-18T13:57:34.059Z,102329.34
2022-12-18T14:00:26.067Z,102324.00
2022-12-18T14:02:55.890Z,102327.59
2022-12-18T14:05:32.060Z,102358.81
2022-12-18T14:08:06.918Z,102351.69
2022-12-18T14:10:58.270Z,102363.31
2022-12-18T14:13:37.519Z,102346.41
2022-12-18T14:16:12.252Z,102383.03
2022-12-18T14:18:51.710Z,102385.69
2022-12-18T14:21:25.076Z,102368.75
2022-12-18T14:24:15.177Z,102378.56
2022-12-18T14:26:50.703Z,102377.69
2022-12-18T14:29:30.251Z,102366.97
2022-12-18T14:32:19.291Z,102377.69
2022-12-18T14:34:51.306Z,102378.59
2022-12-18T14:37:21.711Z,102370.56
2022-12-18T14:40:11.400Z,102388.41
2022-12-18T14:42:46.867Z,102388.41
2022-12-18T14:45:46.240Z,102398.22
2022-12-18T14:48:22.873Z,102375.00
2022-12-18T14:51:08.569Z,102392.00
2022-12-18T14:53:49.155Z,102403.59
2022-12-18T14:56:29.248Z,102391.06
2022-12-18T14:59:10.873Z,102403.59
2022-12-18T15:02:00.298Z,102408.06
2022-12-18T15:04:40.051Z,102402.66
2022-12-18T15:07:27.150Z,102416.97
2022-12-18T15:10:14.654Z,102379.44
2022-12-18T15:12:46.051Z,102398.16
2022-12-18T15:15:57.446Z,102422.34
2022-12-18T15:18:45.461Z,102416.03
2022-12-18T15:21:23.988Z,102411.56
2022-12-18T15:24:02.912Z,102425.00
2022-12-18T15:26:41.791Z,102417.75
2022-12-18T15:29:22.999Z,102433.81
2022-12-18T15:32:02.034Z,102429.38
2022-12-18T15:34:35.559Z,102425.72
2022-12-18T15:37:04.577Z,102442.72
2022-12-18T15:39:31.437Z,102437.38
2022-12-18T15:42:01.814Z,102415.94
2022-12-18T15:44:28.774Z,102435.59
2022-12-18T15:46:56.547Z,102401.63
2022-12-18T15:49:23.563Z,102421.22
2022-12-18T15:51:54.658Z,102431.06
2022-12-18T15:54:25.029Z,102436.34
2022-12-18T15:56:55.917Z,102438.16
2022-12-18T15:59:24.267Z,102430.16
2022-12-18T16:01:54.676Z,102456.84
2022-12-18T16:04:22.698Z,102450.50
2022-12-18T16:09:48.564Z,102440.59
2022-12-18T16:12:18.336Z,102441.34
2022-12-18T16:14:45.377Z,102462.06
2022-12-18T16:17:14.538Z,102466.38
2022-12-18T16:19:45.114Z,102449.50
2022-12-18T16:22:22.550Z,102456.59
2022-12-18T16:24:49.538Z,102443.91
2022-12-18T16:27:16.265Z,102453.69
2022-12-18T16:29:46.077Z,102465.13
2022-12-18T16:32:16.355Z,102457.13
2022-12-18T16:34:51.758Z,102467.78
2022-12-18T16:37:21.328Z,102466.75
2022-12-18T16:39:54.025Z,102467.84
2022-12-18T16:42:23.284Z,102467.84
2022-12-18T16:44:53.422Z,102468.81
2022-12-18T16:47:21.395Z,102474.03
2022-12-18T16:49:50.802Z,102459.59
2022-12-18T16:52:24.974Z,102466.69
2022-12-18T16:54:54.033Z,102491.84
2022-12-18T16:57:24.679Z,102499.03
2022-12-18T16:59:53.753Z,102499.13
2022-12-18T17:02:23.692Z,102488.28
2022-12-18T17:04:54.564Z,102498.94
2022-12-18T17:07:26.136Z,102515.97
2022-12-18T17:09:55.623Z,102511.31
2022-12-18T17:12:25.455Z,102517.72
2022-12-18T17:14:56.488Z,102520.34
2022-12-18T17:17:25.690Z,102488.09
2022-12-18T17:19:55.319Z,102509.81
2022-12-18T17:22:25.778Z,102523.00
2022-12-18T17:24:58.160Z,102504.25
2022-12-18T17:27:27.838Z,102498.94
2022-12-18T17:30:02.393Z,102510.16
2022-12-18T17:32:34.470Z,102492.47
2022-12-18T17:35:06.780Z,102505.81
2022-12-18T17:37:43.704Z,102511.25
2022-12-18T17:40:11.324Z,102517.53
2022-12-18T17:42:47.631Z,102523.81
2022-12-18T17:45:18.143Z,102498.53
2022-12-18T17:47:47.363Z,102526.50
2022-12-18T17:50:16.390Z,102511.09
2022-12-18T17:52:46.895Z,102538.91
2022-12-18T17:55:13.623Z,102537.16
2022-12-18T17:57:45.652Z,102514.69
2022-12-18T18:00:20.772Z,102502.13
2022-12-18T18:02:53.278Z,102512.09
2022-12-18T18:05:24.319Z,102531.59
2022-12-18T18:08:00.106Z,102531.38
2022-12-18T18:10:27.863Z,102543.28
2022-12-18T18:12:54.535Z,102526.16
2022-12-18T18:15:23.144Z,102529.47
2022-12-18T18:17:49.813Z,102522.31
2022-12-18T18:20:22.265Z,102534.22
2022-12-18T18:22:49.317Z,102520.03
2022-12-18T18:25:17.667Z,102532.44
2022-12-18T18:27:45.143Z,102534.19
2022-12-18T18:30:14.397Z,102538.78
2022-12-18T18:32:41.094Z,102533.41
2022-12-18T18:35:19.345Z,102542.28
2022-12-18T18:37:55.386Z,102557.22
2022-12-18T18:40:23.383Z,102550.94
2022-12-18T18:42:54.879Z,102553.00
2022-12-18T18:45:21.503Z,102560.91
2022-12-18T18:47:48.124Z,102562.56
2022-12-18T18:50:14.755Z,102545.72
2022-12-18T18:52:41.621Z,102544.50
2022-12-18T18:55:13.562Z,102555.41
2022-12-18T18:57:48.188Z,102550.09
2022-12-18T19:00:16.611Z,102546.78
2022-12-18T19:02:43.532Z,102563.66
2022-12-18T19:05:10.412Z,102549.34
2022-12-18T19:07:37.065Z,102553.72
2022-12-18T19:10:05.518Z,102549.00
2022-12-18T19:12:33.333Z,102564.03
2022-12-18T19:15:01.577Z,102562.41
2022-12-18T19:17:30.726Z,102574.69
2022-12-18T19:19:58.280Z,102567.75
2022-12-18T19:22:27.496Z,102542.84
2022-12-18T19:24:54.232Z,102543.75
2022-12-18T19:27:21.211Z,102561.56
2022-12-18T19:29:48.914Z,102565.06
2022-12-18T19:32:16.984Z,102555.41
2022-12-18T19:34:47.881Z,102567.81
2022-12-18T19:37:15.162Z,102561.47
2022-12-18T19:39:41.907Z,102575.06
2022-12-18T19:42:08.760Z,102550.66
2022-12-18T19:44:35.489Z,102554.38
2022-12-18T19:47:02.252Z,102537.44
2022-12-18T19:49:30.290Z,102567.59
2022-12-18T19:51:56.902Z,102550.47
2022-12-18T19:54:24.825Z,102552.38
2022-12-18T19:56:53.027Z,102582.75
2022-12-18T19:59:19.855Z,102590.50
2022-12-18T20:01:46.585Z,102600.22
2022-12-18T20:04:13.634Z,102599.50
2022-12-18T20:06:48.450Z,102604.09
2022-12-18T20:09:15.742Z,102602.19
2022-12-18T20:11:43.320Z,102602.00
2022-12-18T20:14:10.289Z,102590.47
2022-12-18T20:16:37.099Z,102592.34
2022-12-18T20:19:04.918Z,102564.44
2022-12-18T20:21:31.653Z,102584.44
2022-12-18T20:23:59.783Z,102581.38
2022-12-18T20:26:26.556Z,102598.47
2022-12-18T20:28:54.184Z,102590.56
2022-12-18T20:31:21.013Z,102592.44
2022-12-18T20:33:48.599Z,102596.72
2022-12-18T20:36:19.229Z,102591.28
2022-12-18T20:38:49.000Z,102587.84
2022-12-18T20:41:20.041Z,102592.34
2022-12-18T20:43:47.303Z,102592.34
2022-12-18T20:46:15.737Z,102600.31
2022-12-18T20:48:43.205Z,102601.97
2022-12-18T20:51:11.701Z,102611.69
2022-12-18T20:53:41.703Z,102602.66
2022-12-18T20:56:10.414Z,102607.84
2022-12-18T20:58:39.046Z,102606.41
2022-12-18T21:01:07.778Z,102612.34
2022-12-18T21:03:34.499Z,102583.69
2022-12-18T21:06:01.166Z,102611.53
2022-12-18T21:08:28.337Z,102608.91
2022-12-18T21:10:55.515Z,102603.34
2022-12-18T21:13:23.727Z,102596.16
2022-12-18T21:16:03.155Z,102579.19
2022-12-18T21:18:37.840Z,102584.78
2022-12-18T21:21:09.110Z,102586.34
2022-12-18T21:23:40.140Z,102596.16
2022-12-18T21:26:17.996Z,102595.22
2022-12-18T21:28:52.145Z,102598.78
2022-12-18T21:31:31.769Z,102599.81
2022-12-18T21:34:34.440Z,102593.50
2022-12-18T21:37:21.428Z,102575.75
2022-12-18T21:40:21.162Z,102595.13
2022-12-18T21:42:56.267Z,102577.44
2022-12-18T21:48:11.635Z,102566.69
2022-12-18T21:50:48.092Z,102570.00
2022-12-18T21:53:21.402Z,102578.91
2022-12-18T21:56:04.417Z,102577.88
2022-12-18T21:58:38.349Z,102590.31
2022-12-18T22:01:30.514Z,102587.91
2022-12-18T22:04:30.255Z,102578.94
2022-12-18T22:07:12.692Z,102583.47
2022-12-18T22:09:44.185Z,102563.47
2022-12-18T22:12:16.066Z,102547.78
2022-12-18T22:14:44.965Z,102548.59
2022-12-18T22:17:14.397Z,102570.84
2022-12-18T22:19:44.968Z,102574.59
2022-12-18T22:22:21.013Z,102569.72
2022-12-18T22:24:47.690Z,102564.34
2022-12-18T22:27:14.399Z,102567.81
2022-12-18T22:29:41.088Z,102553.38
2022-12-18T22:32:09.786Z,102534.75
2022-12-18T22:34:38.628Z,102549.06
2022-12-18T22:37:06.651Z,102569.69
2022-12-18T22:39:33.422Z,102563.59
2022-12-18T22:42:00.305Z,102561.66
2022-12-18T22:44:27.096Z,102571.91
2022-12-18T22:46:56.312Z,102581.31
2022-12-18T22:49:42.378Z,102580.56
2022-12-18T22:52:15.341Z,102557.69
2022-12-18T22:54:48.543Z,102559.22
2022-12-18T23:00:09.301Z,102570.19
2022-12-18T23:05:31.091Z,102551.31
2022-12-18T23:08:34.642Z,102547.97
2022-12-18T23:14:22.553Z,102557.06
2022-12-18T23:17:17.428Z,102545.53
2022-12-18T23:20:15.819Z,102535.44
2022-12-18T23:22:47.252Z,102558.66
2022-12-18T23:25:18.329Z,102544.91
2022-12-18T23:27:50.796Z,102535.09
2022-12-18T23:30:43.642Z,102537.53
2022-12-18T23:33:10.320Z,102562.22
2022-12-18T23:38:44.572Z,102562.50
2022-12-18T23:41:24.415Z,102583.53
2022-12-18T23:44:04.491Z,102560.31
2022-12-18T23:47:31.934Z,102588.03
2022-12-18T23:49:43.647Z,102561.53
2022-12-18T23:52:24.056Z,102556.41
2022-12-18T23:55:20.336Z,102568.41
2022-12-18T23:58:01.158Z,102585.47
